• Join FlightAware (Why Join?)
  • Login
  • US Flag 
09:41PM EDT


 

Airport Tracker/Info


-or-


 

Live Flight TrackerFlight Track Log ✈ VOZ1486 ✈ 25-Sep-2013 ✈ YBRM / BME - YPPH / PER

Flight Track Log - Related Links

Times and Time Zones

All times are in EDT time to prevent confusion due to time zone crossing. See the VOZ1486 flight status page for this flight to view local times or setup timezone preferences in your user account.

Time Position Orientation Groundspeed Altitude Reporting Facility
EDT Latitude Longitude Course Direction KTS MPH feet Rate Location/Type
02:42AM -18.0012 122.1930 203° Southwest 16,500  Level Aus ATC (Calculated)
02:43AM -18.1975 122.1235 202° Southwest  Level FlightAware Approximate
02:43AM -18.0529 122.1582 203° Southwest 16,500  Level Aus ATC (Calculated)
02:45AM -18.2045 122.0941 202° Southwest  Level FlightAware Approximate
02:45AM -18.2065 122.0567 202° Southwest 16,500  Level Aus ATC (Calculated)
02:46AM -18.2077 122.0539 202° Southwest 16,500 660 Level Aus ATC (Calculated)
02:46AM -18.2585 122.0209 202° Southwest 16,500 660 Level Aus ATC (Calculated)
02:47AM -18.3105 121.9851 202° Southwest 16,500 660 Level Aus ATC (Calculated)
02:48AM -18.3625 121.9493 201° Southwest 38,000 660 Climbing Aus ATC (Calculated)
02:49AM -18.5444 121.8747 201° Southwest 38,000 -120 Level Aus ATC (Calculated)
02:50AM -18.5271 121.8818 201° Southwest  Level FlightAware Approximate
02:51AM -18.6827 121.8179 201° Southwest  Level FlightAware Approximate
02:52AM -18.7878 121.7746 201° Southwest  Level FlightAware Approximate
02:52AM -18.8171 121.7625 201° Southwest 38,000  Level Aus ATC (Calculated)
02:52AM -18.9080 121.7251 201° Southwest 38,000 -120 Level Aus ATC (Calculated)
02:54AM -19.0218 121.6781 201° Southwest  Level FlightAware Approximate
02:55AM -19.1268 121.6347 201° Southwest  Level FlightAware Approximate
02:55AM -19.0898 121.6500 201° Southwest 38,000  Level Aus ATC (Calculated)
02:56AM -19.2715 121.5747 201° Southwest 38,000 -120 Level Aus ATC (Calculated)
02:56AM -19.2715 121.5747 201° Southwest 38,000 -120 Level Aus ATC (Calculated)
02:58AM -19.3852 121.5276 201° Southwest  Level FlightAware Approximate
02:59AM -19.4902 121.4839 201° Southwest  Level FlightAware Approximate
02:59AM -19.5440 121.4616 202° Southwest 38,000  Level Aus ATC (Calculated)
03:01AM -19.7489 121.3762 201° Southwest  Level FlightAware Approximate
03:01AM -19.8164 121.3480 202° Southwest 38,000  Level Aus ATC (Calculated)
03:02AM -19.8164 121.3480 202° Southwest 38,000 -180 Level Aus ATC (Calculated)
03:03AM -19.9857 121.2773 202° Southwest 38,000 -180 Level Aus ATC (Calculated)
03:04AM -20.0213 121.2624 201° Southwest  Level FlightAware Approximate
03:04AM -20.0986 121.2300 202° Southwest 38,000  Level Aus ATC (Calculated)
03:06AM -20.2722 121.1572 201° Southwest  Level FlightAware Approximate
03:07AM -20.3763 121.1134 202° Southwest  Level FlightAware Approximate
03:08AM -20.4804 121.0696 202° Southwest  Level FlightAware Approximate
03:09AM -20.5845 121.0257 202° Southwest  Level FlightAware Approximate
03:09AM -20.6627 120.9926 202° Southwest 38,000  Level Aus ATC (Calculated)
03:11AM -20.8448 120.9156 202° Southwest  Level FlightAware Approximate
03:12AM -20.9489 120.8715 202° Southwest  Level FlightAware Approximate
03:13AM -21.0529 120.8273 202° Southwest  Level FlightAware Approximate
03:14AM -21.1569 120.7831 202° Southwest  Level FlightAware Approximate
03:14AM -21.1005 120.8023 202° Southwest 443 510 36,000  Level Aus ATC (RADAR)
03:15AM -21.2073 120.7572 201° Southwest 446 513 36,000  Level Aus ATC (RADAR)
03:15AM -21.2250 120.7540 201° Southwest 451 519 36,000  Level FlightAware
03:15AM -21.2671 120.7337 200° South 449 517 36,000  Level Aus ATC (RADAR)
03:16AM -21.3062 120.7177 201° Southwest 448 516 36,000  Level Aus ATC (RADAR)
03:16AM -21.3110 120.7180 201° Southwest 449 517 36,000  Level FlightAware
03:17AM -21.4270 120.6680 202° Southwest 451 519 36,000  Level FlightAware
03:17AM -21.4920 120.6400 202° Southwest 450 518 36,000  Level FlightAware
03:18AM -21.5476 120.6143 202° Southwest 447 514 36,000  Level Aus ATC (RADAR)
03:18AM -21.5810 120.6030 202° Southwest 449 517 36,000  Level FlightAware
03:19AM -21.6510 120.5720 202° Southwest 451 519 36,000  Level FlightAware
03:19AM -21.7250 120.5400 202° Southwest 450 518 36,000  Level FlightAware
03:20AM -21.7970 120.5100 201° Southwest 450 518 36,000  Level FlightAware
03:21AM -21.8570 120.4850 201° Southwest 450 518 36,000 1,200 Level FlightAware
03:21AM -21.9324 120.4485 201° Southwest 442 509 37,400  Climbing Aus ATC (RADAR)
03:21AM -21.9160 120.4610 201° Southwest 450 518 36,000 660 Descending FlightAware
03:22AM -21.9982 120.4199 201° Southwest 438 504 37,800  Climbing Aus ATC (RADAR)
03:22AM -21.9760 120.4360 201° Southwest 450 518 36,000 300 Descending FlightAware
03:22AM -22.0710 120.3920 203° Southwest 440 506 38,000 1,740 Climbing FlightAware
03:23AM -22.1421 120.3599 203° Southwest 439 505 38,100  Climbing Aus ATC (RADAR)
03:23AM -22.1630 120.3530 203° Southwest 441 507 38,000  Descending FlightAware
03:24AM -22.2265 120.3230 203° Southwest 437 503 38,100  Climbing Aus ATC (RADAR)
03:24AM -22.2410 120.3200 203° Southwest 441 507 38,000 -120 Descending FlightAware
03:25AM -22.3340 120.2780 203° Southwest 439 505 38,000  Level FlightAware
03:25AM -22.3900 120.2540 202° Southwest 440 506 38,000  Level FlightAware
03:26AM -22.4480 120.2280 203° Southwest 440 506 38,000  Level FlightAware
03:26AM -22.5050 120.2030 202° Southwest 440 506 38,000  Level FlightAware
03:27AM -22.5630 120.1780 202° Southwest 440 506 38,000 60 Level FlightAware
03:28AM -22.6563 120.1356 202° Southwest 430 495 38,100  Climbing Aus ATC (RADAR)
03:28AM -22.6220 120.1520 202° Southwest 440 506 38,000  Descending FlightAware
03:28AM -22.7221 120.1074 202° Southwest 431 496 38,100  Climbing Aus ATC (RADAR)
03:28AM -22.6800 120.1270 202° Southwest 440 506 38,000 -180 Descending FlightAware
03:29AM -22.7380 120.1010 202° Southwest 440 506 38,000  Level FlightAware
03:29AM -22.7960 120.0760 202° Southwest 440 506 38,000  Level FlightAware
03:30AM -22.8530 120.0510 202° Southwest 440 506 38,000  Level FlightAware
03:31AM -22.9110 120.0250 202° Southwest 440 506 38,000  Level FlightAware
03:31AM -22.9690 120.0000 202° Southwest 440 506 38,000  Level FlightAware
03:32AM -23.0270 119.9750 202° Southwest 440 506 38,000 120 Level FlightAware
03:32AM -23.1420 119.9247 202° Southwest 429 494 38,100  Climbing Aus ATC (RADAR)
03:32AM -23.0840 119.9490 203° Southwest 440 506 38,000 -120 Descending FlightAware
03:33AM -23.1420 119.9240 202° Southwest 440 506 38,000  Level FlightAware
03:34AM -23.2000 119.8990 202° Southwest 440 506 38,000  Level FlightAware
03:34AM -23.2580 119.8730 202° Southwest 440 506 38,000 60 Level FlightAware
03:35AM -23.5072 119.7668 202° Southwest 436 502 38,100  Climbing Aus ATC (RADAR)
03:36AM -23.6063 119.7249 201° Southwest 415 478 38,100  Level Aus ATC (RADAR)
03:37AM -23.6576 119.7045 200° South 438 504 38,100  Level Aus ATC (RADAR)
03:37AM -23.7332 119.6728 201° Southwest 441 507 38,100  Level Aus ATC (RADAR)
03:38AM -23.8071 119.6418 201° Southwest 436 502 38,100  Level Aus ATC (RADAR)
03:38AM -23.8718 119.6147 201° Southwest 431 496 38,100  Level Aus ATC (RADAR)
03:39AM -23.9651 119.5756 201° Southwest 430 495 38,100  Level Aus ATC (RADAR)
03:40AM -24.0112 119.5564 201° Southwest 429 494 38,100  Level Aus ATC (RADAR)
03:40AM -24.0756 119.5294 201° Southwest 426 490 38,100  Level Aus ATC (RADAR)
03:41AM -24.2059 119.4742 201° Southwest 431 496 38,100  Level Aus ATC (RADAR)
03:42AM -24.2502 119.4562 200° South 419 482 38,100  Level Aus ATC (RADAR)
03:42AM -24.3154 119.4284 201° Southwest 426 490 38,100  Level Aus ATC (RADAR)
03:43AM -24.3807 119.4008 201° Southwest 430 495 38,100  Level Aus ATC (RADAR)
03:44AM -24.4543 119.3701 201° Southwest 427 491 38,100  Level Aus ATC (RADAR)
03:44AM -24.5383 119.3345 201° Southwest 429 494 38,100  Level Aus ATC (RADAR)
03:45AM -24.5840 119.3156 201° Southwest 425 489 38,100  Level Aus ATC (RADAR)
03:45AM -24.6490 119.2879 201° Southwest 428 493 38,100  Level Aus ATC (RADAR)
03:47AM -24.7787 119.2325 201° Southwest 432 497 38,100  Level Aus ATC (RADAR)
03:47AM -24.8059 119.2214 200° South 429 494 38,100  Level Aus ATC (RADAR)
03:47AM -24.8710 119.1934 201° Southwest 429 494 38,100  Level Aus ATC (RADAR)
03:48AM -24.9732 119.1498 201° Southwest 431 496 38,100  Level Aus ATC (RADAR)
03:49AM -25.0371 119.1235 200° South 427 491 38,100  Level Aus ATC (RADAR)
03:50AM -25.1305 119.0829 201° Southwest 430 495 38,100  Level Aus ATC (RADAR)
03:50AM -25.1953 119.0548 201° Southwest 430 495 38,100  Level Aus ATC (RADAR)
03:51AM -25.3061 119.0071 201° Southwest 430 495 38,100  Level Aus ATC (RADAR)
03:52AM -25.3428 118.9914 201° Southwest 430 495 38,100  Level Aus ATC (RADAR)
03:52AM -25.4075 118.9622 202° Southwest 431 496 38,100  Level Aus ATC (RADAR)
03:53AM -25.4894 118.9287 200° South 423 487 38,100  Level Aus ATC (RADAR)
03:54AM -25.5534 118.9016 201° Southwest 424 488 38,100  Level Aus ATC (RADAR)
03:54AM -25.6358 118.8649 202° Southwest 424 488 38,100  Level Aus ATC (RADAR)
03:55AM -25.6895 118.8421 201° Southwest 419 482 38,100  Level Aus ATC (RADAR)
03:55AM -25.7517 118.8159 201° Southwest 413 475 38,100  Level Aus ATC (RADAR)
03:56AM -25.8685 118.7647 201° Southwest 417 480 38,100  Level Aus ATC (RADAR)
03:57AM -25.9129 118.7462 201° Southwest 414 476 38,100  Level Aus ATC (RADAR)
03:57AM -25.9753 118.7190 201° Southwest 413 475 38,100  Level Aus ATC (RADAR)
03:58AM -26.0649 118.6797 201° Southwest 416 479 38,100  Level Aus ATC (RADAR)
03:59AM -26.1279 118.6521 201° Southwest 418 481 38,100  Level Aus ATC (RADAR)
04:00AM -26.2171 118.6139 201° Southwest 414 476 38,100  Level Aus ATC (RADAR)
04:00AM -26.2709 118.5907 201° Southwest 415 478 38,100  Level Aus ATC (RADAR)
04:01AM -26.3787 118.5432 202° Southwest 417 480 38,100  Level Aus ATC (RADAR)
04:02AM -26.4312 118.5242 198° South 407 468 38,100  Level Aus ATC (RADAR)
04:02AM -26.4575 118.5139 199° South 404 465 38,100  Level Aus ATC (RADAR)
04:03AM -26.5305 118.4733 206° Southwest 428 493 38,100  Level Aus ATC (RADAR)
04:03AM -26.5949 118.4402 205° Southwest 435 501 38,100  Level Aus ATC (RADAR)
04:04AM -26.6471 118.4245 195° South 405 466 38,100  Level Aus ATC (RADAR)
04:07AM -27.0437 118.2483 202° Southwest 38,000  Descending Aus ATC (Calculated)
04:08AM -27.2072 118.1753 202° Southwest 38,000  Level Aus ATC (Calculated)
04:09AM -27.2239 118.1679 202° Southwest  Level FlightAware Approximate
04:10AM -27.3502 118.1113 202° Southwest  Level FlightAware Approximate
04:10AM -27.3843 118.0960 202° Southwest 38,000  Level Aus ATC (Calculated)
04:12AM -27.5923 118.0025 202° Southwest  Level FlightAware Approximate
04:13AM -27.7036 117.9523 202° Southwest  Level FlightAware Approximate
04:13AM -27.7826 117.9166 203° Southwest 38,000  Level Aus ATC (Calculated)
04:13AM -27.7826 117.9166 203° Southwest 38,000  Level Aus ATC (Calculated)
04:15AM -27.9255 117.8519 202° Southwest  Level FlightAware Approximate
04:16AM -27.8142 117.9023 22° Northeast  Level FlightAware Approximate
04:16AM -27.9895 117.8149 22° Northeast 411 473 38,100  Level Aus ATC (RADAR)
04:17AM -28.0155 117.8021 203° Southwest 410 472 38,100  Level Aus ATC (RADAR)
04:17AM -28.0853 117.7698 202° Southwest 408 470 38,100  Level Aus ATC (RADAR)
04:18AM -28.1473 117.7440 200° South 408 470 38,100  Level Aus ATC (RADAR)
04:19AM -28.2418 117.6996 203° Southwest 402 463 38,100  Level Aus ATC (RADAR)
04:19AM -28.2669 117.6858 206° Southwest 400 460 38,100  Level Aus ATC (RADAR)
04:20AM -28.3272 117.6541 205° Southwest 407 468 38,100  Level Aus ATC (RADAR)
04:20AM -28.4151 117.6137 202° Southwest 411 473 38,100  Level Aus ATC (RADAR)
04:21AM -28.4414 117.6024 201° Southwest 413 475 38,100  Level Aus ATC (RADAR)
04:22AM -28.5674 117.5495 200° South 408 470 38,100  Level Aus ATC (RADAR)
04:22AM -28.6116 117.5286 202° Southwest 410 472 38,100 -180 Level Aus ATC (RADAR)
04:23AM -28.6370 117.5280 202° Southwest 414 476 38,000 -120 Descending FlightAware
04:23AM -28.6960 117.5010 202° Southwest 414 476 38,000  Level FlightAware
04:24AM -28.7770 117.4640 202° Southwest 403 464 38,000  Level FlightAware
04:25AM -28.8600 117.4260 202° Southwest 403 464 38,000  Level FlightAware
04:25AM -28.9160 117.4000 202° Southwest 403 464 38,000  Level FlightAware
04:26AM -28.9830 117.3690 202° Southwest 402 463 38,000  Level FlightAware
04:26AM -29.0390 117.3430 202° Southwest 401 461 38,000  Level FlightAware
04:27AM -29.0910 117.3190 202° Southwest 401 461 38,000  Level FlightAware
04:27AM -29.1620 117.2860 202° Southwest 403 464 38,000 360 Level FlightAware
04:28AM -29.1673 117.2750 202° Southwest 412 474 38,200 300 Climbing Aus ATC (RADAR)
04:28AM -29.2290 117.2478 202° Southwest 407 468 38,200 -300 Level Aus ATC (RADAR)
04:28AM -29.2440 117.2480 202° Southwest 403 464 38,000  Descending FlightAware
04:29AM -29.3174 117.2083 202° Southwest 406 467 38,200  Climbing Aus ATC (RADAR)
04:29AM -29.3450 117.2010 202° Southwest 402 463 38,000 -240 Descending FlightAware
04:30AM -29.4090 117.1710 202° Southwest 402 463 38,000  Level FlightAware
04:30AM -29.4690 117.1440 201° Southwest 400 460 38,000  Level FlightAware
04:31AM -29.5380 117.1110 203° Southwest 398 458 38,000  Level FlightAware
04:32AM -29.6100 117.0780 202° Southwest 404 465 38,000  Level FlightAware
04:32AM -29.6610 117.0540 202° Southwest 404 465 38,000  Level FlightAware
04:33AM -29.7270 117.0230 202° Southwest 404 465 38,000  Level FlightAware
04:34AM -29.7880 116.9950 202° Southwest 404 465 38,000  Level FlightAware
04:34AM -29.8530 116.9640 202° Southwest 403 464 38,000  Level FlightAware
04:35AM -29.9070 116.9390 202° Southwest 403 464 38,000  Level FlightAware
04:35AM -29.9830 116.9030 202° Southwest 400 460 38,000  Level FlightAware
04:36AM -30.0380 116.8770 202° Southwest 400 460 38,000 -180 Level FlightAware
04:37AM -30.0870 116.8530 203° Southwest 402 463 37,800 -2,340 Descending FlightAware
04:37AM -30.1600 116.8190 202° Southwest 386 444 35,500 -1,860 Descending FlightAware
04:38AM -30.2220 116.7880 203° Southwest 384 442 35,300 -1,980 Descending FlightAware
04:38AM -30.2920 116.7560 202° Southwest 369 425 32,700 -2,040 Descending FlightAware
04:39AM -30.3450 116.7320 201° Southwest 369 425 32,700 -1,380 Level FlightAware
04:40AM -30.4250 116.6920 203° Southwest 352 405 30,700 -1,440 Descending FlightAware
04:41AM -30.4710 116.6700 202° Southwest 352 405 30,700  Level FlightAware
04:41AM -30.5170 116.6470 203° Southwest 352 405 30,700 -3,600 Level FlightAware
04:42AM -30.6084 116.6091 203° Southwest 355 409 26,400  Descending Aus ATC (RADAR)
04:42AM -30.5630 116.6240 203° Southwest 352 405 30,700 -1,860 Climbing FlightAware
04:42AM -30.6570 116.5920 196° South 359 413 25,300 -5,700 Descending FlightAware
04:43AM -30.7150 116.5690 199° South 361 415 24,100 -1,980 Descending FlightAware
04:43AM -30.7667 116.5470 199° South 363 418 23,200 -2,040 Descending Aus ATC (RADAR)
04:44AM -30.7920 116.5390 199° South 359 413 22,500 -2,040 Descending FlightAware
04:44AM -30.8470 116.5180 198° South 340 391 21,400 -1,800 Descending FlightAware
04:45AM -30.9000 116.4970 199° South 336 387 20,400 -1,740 Descending FlightAware
04:46AM -30.9550 116.4750 199° South 326 375 19,300 -900 Descending FlightAware
04:46AM -31.0020 116.4570 198° South 326 375 19,300 -1,620 Level FlightAware
04:47AM -31.0667 116.4304 198° South 312 359 17,200 -2,280 Descending Aus ATC (RADAR)
04:47AM -31.0800 116.4270 198° South 310 357 17,300 -1,200 Climbing FlightAware
04:47AM -31.0780 116.4270 360° North 221 254 16,800 -2,400 Descending FlightAware
04:48AM -31.1537 116.3965 360° North 302 348 15,300 -1,800 Descending Aus ATC (RADAR)
04:48AM -31.1460 116.4000 360° North 307 353 15,300 -1,680 Level FlightAware
04:49AM -31.2180 116.3720 198° South 293 337 13,800 -1,920 Descending FlightAware
04:49AM -31.2680 116.3520 199° South 290 334 12,800 -1,680 Descending FlightAware
04:50AM -31.3110 116.3350 199° South 286 329 11,900 -1,620 Descending FlightAware
04:51AM -31.3600 116.3160 198° South 291 335 10,900 -1,680 Descending FlightAware
04:51AM -31.4040 116.2990 198° South 292 336 10,000 -1,560 Descending FlightAware
04:51AM -31.4290 116.2860 204° Southwest 286 329 9,500 -1,500 Descending FlightAware
04:52AM -31.4520 116.2710 209° Southwest 273 314 9,000 -1,440 Descending FlightAware
04:52AM -31.4680 116.2610 208° Southwest 279 321 8,700 -1,440 Descending FlightAware
04:52AM -31.4910 116.2460 209° Southwest 276 318 8,200 -1,440 Descending FlightAware
04:53AM -31.5190 116.2280 209° Southwest 264 304 7,600 -1,500 Descending FlightAware
04:53AM -31.5300 116.2210 208° Southwest 262 302 7,300 -1,500 Descending FlightAware
04:53AM -31.5510 116.2070 210° Southwest 261 300 6,900 -1,080 Descending FlightAware
04:54AM -31.5680 116.1970 207° Southwest 269 310 6,500 -1,020 Descending FlightAware
04:54AM -31.5790 116.1890 212° Southwest 269 310 6,300 -1,500 Descending FlightAware
04:54AM -31.6080 116.1710 208° Southwest 264 304 5,600 -1,380 Descending FlightAware
04:55AM -31.6270 116.1590 208° Southwest 263 303 5,300 -900 Descending FlightAware
04:55AM -31.6570 116.1400 208° Southwest 245 282 4,900 -960 Descending FlightAware
04:55AM -31.6760 116.1280 208° Southwest 242 278 4,500 -1,680 Descending FlightAware
04:56AM -31.7050 116.1090 209° Southwest 242 278 3,800 -1,560 Descending FlightAware
04:56AM -31.7260 116.0960 208° Southwest 226 260 3,500 -840 Descending FlightAware
04:56AM -31.7400 116.0860 211° Southwest 225 259 3,300 -600 Descending FlightAware
04:57AM -31.7530 116.0770 210° Southwest 213 245 3,200 -420 Descending FlightAware
04:57AM -31.7620 116.0640 231° Southwest 198 228 3,100 -540 Descending FlightAware
04:57AM -31.7730 116.0470 233° Southwest 193 222 2,900 -600 Descending FlightAware
04:58AM -31.7840 116.0300 233° Southwest 184 212 2,700 -780 Descending FlightAware
04:58AM -31.7940 116.0140 234° Southwest 164 189 2,400 -660 Descending FlightAware
04:58AM -31.7990 116.0090 220° Southwest 162 186 2,400  Level FlightAware
04:58AM -31.8020 116.0060 220° Southwest 154 177 2,400 -600 Level FlightAware
04:58AM -31.8050 116.0040 210° Southwest 160 184 2,300 -840 Descending FlightAware
04:58AM -31.8130 116.0020 192° South 161 185 2,200 -600 Descending FlightAware
04:59AM -31.8280 115.9980 193° South 152 175 2,000 -780 Descending FlightAware
04:59AM -31.8420 115.9940 194° South 152 175 1,700 -960 Descending FlightAware
04:59AM -31.8540 115.9900 196° South 149 171 1,400 -780 Descending FlightAware
05:00AM -31.8670 115.9860 195° South 138 159 1,200 -840 Descending FlightAware
05:00AM -31.8830 115.9820 192° South 131 151 800 -840 Descending FlightAware
05:00AM -31.8950 115.9780 196° South 131 151 600 -600 Descending FlightAware
05:01AM -31.9050 115.9750 194° South 131 151 400 -600 Descending FlightAware
05:01AM -31.9270 115.9690 193° South 130 150 -720 Descending FlightAware
05:02AM -31.9400 115.9650 195° South 82 94  Level FlightAware
05:02AM -31.9480 115.9630 192° South 82 94  Level FlightAware